createdAt,value
2023-03-12T00:01:24.238Z,101007.53
2023-03-12T00:03:54.171Z,101008.22
2023-03-12T00:06:22.851Z,101018.75
2023-03-12T00:08:51.301Z,101017.22
2023-03-12T00:11:21.141Z,101004.97
2023-03-12T00:13:51.381Z,101000.06
2023-03-12T00:16:20.501Z,100994.59
2023-03-12T00:18:50.781Z,100993.03
2023-03-12T00:21:21.228Z,100994.59
2023-03-12T00:23:51.193Z,101000.22
2023-03-12T00:26:21.366Z,100987.13
2023-03-12T00:28:50.364Z,100976.88
2023-03-12T00:31:20.692Z,100977.03
2023-03-12T00:33:50.105Z,100965.50
2023-03-12T00:36:21.383Z,100957.34
2023-03-12T00:38:49.739Z,100948.34
2023-03-12T00:41:19.995Z,100950.19
2023-03-12T00:43:50.198Z,100958.88
2023-03-12T00:46:21.291Z,100964.09
2023-03-12T00:48:50.167Z,100963.78
2023-03-12T00:51:19.628Z,100952.69
2023-03-12T00:53:48.255Z,100947.50
2023-03-12T00:56:16.695Z,100947.06
2023-03-12T00:58:46.253Z,100942.56
2023-03-12T01:01:15.781Z,100953.25
2023-03-12T01:03:44.294Z,100943.16
2023-03-12T01:06:13.016Z,100940.88
2023-03-12T01:08:42.375Z,100940.19
2023-03-12T01:11:19.285Z,100937.53
2023-03-12T01:13:48.195Z,100940.78
2023-03-12T01:16:16.694Z,100937.22
2023-03-12T01:18:45.226Z,100920.91
2023-03-12T01:21:13.625Z,100924.03
2023-03-12T01:23:42.077Z,100926.28
2023-03-12T01:26:10.440Z,100918.81
2023-03-12T01:28:38.856Z,100910.81
2023-03-12T01:31:09.105Z,100907.59
2023-03-12T01:33:37.794Z,100908.56
2023-03-12T01:36:25.974Z,100920.91
2023-03-12T01:38:57.230Z,100925.44
2023-03-12T01:41:28.239Z,100918.97
2023-03-12T01:43:56.682Z,100922.31
2023-03-12T01:46:29.604Z,100904.59
2023-03-12T01:49:08.190Z,100901.94
2023-03-12T01:51:45.582Z,100898.47
2023-03-12T01:54:26.355Z,100900.56
2023-03-12T01:56:56.972Z,100898.19
2023-03-12T01:59:31.272Z,100895.06
2023-03-12T02:01:59.868Z,100892.41
2023-03-12T02:04:30.974Z,100873.44
2023-03-12T02:07:05.864Z,100874.31
2023-03-12T02:09:39.904Z,100878.06
2023-03-12T02:12:09.282Z,100877.94
2023-03-12T02:14:38.398Z,100868.38
2023-03-12T02:17:08.192Z,100872.75
2023-03-12T02:20:08.014Z,100855.16
2023-03-12T02:22:38.899Z,100853.78
2023-03-12T02:25:32.105Z,100857.97
2023-03-12T02:28:04.902Z,100849.31
2023-03-12T02:30:33.998Z,100844.84
2023-03-12T02:33:06.579Z,100832.88
2023-03-12T02:35:36.036Z,100838.78
2023-03-12T02:38:33.558Z,100838.75
2023-03-12T02:41:16.767Z,100844.47
2023-03-12T02:43:47.624Z,100847.00
2023-03-12T02:46:16.590Z,100841.38
2023-03-12T02:48:45.030Z,100850.66
2023-03-12T02:51:13.693Z,100842.06
2023-03-12T02:53:42.119Z,100853.72
2023-03-12T02:56:10.617Z,100859.78
2023-03-12T02:58:38.988Z,100855.94
2023-03-12T03:01:07.467Z,100848.16
2023-03-12T03:03:35.965Z,100851.38
2023-03-12T03:06:04.744Z,100849.69
2023-03-12T03:08:33.102Z,100853.50
2023-03-12T03:11:03.083Z,100837.53
2023-03-12T03:13:31.746Z,100837.47
2023-03-12T03:16:02.007Z,100838.16
2023-03-12T03:18:31.715Z,100837.16
2023-03-12T03:21:07.461Z,100840.94
2023-03-12T03:23:36.214Z,100837.97
2023-03-12T03:26:04.816Z,100840.81
2023-03-12T03:28:33.306Z,100833.22
2023-03-12T03:31:02.205Z,100828.59
2023-03-12T03:33:33.232Z,100821.47
2023-03-12T03:36:02.703Z,100809.91
2023-03-12T03:38:32.220Z,100813.75
2023-03-12T03:41:01.219Z,100805.06
2023-03-12T03:43:29.761Z,100810.66
2023-03-12T03:46:04.645Z,100822.47
2023-03-12T03:48:33.701Z,100811.69
2023-03-12T03:51:04.578Z,100797.75
2023-03-12T03:53:34.338Z,100785.97
2023-03-12T03:56:10.402Z,100778.34
2023-03-12T03:58:38.966Z,100760.84
2023-03-12T04:01:07.384Z,100762.53
2023-03-12T04:03:36.134Z,100751.31
2023-03-12T04:06:06.439Z,100763.69
2023-03-12T04:08:37.220Z,100768.97
2023-03-12T04:11:18.185Z,100762.06
2023-03-12T04:13:47.057Z,100764.47
2023-03-12T04:16:16.348Z,100757.72
2023-03-12T04:18:45.242Z,100746.31
2023-03-12T04:21:14.464Z,100741.00
2023-03-12T04:23:42.912Z,100740.84
2023-03-12T04:26:11.386Z,100740.56
2023-03-12T04:28:39.819Z,100729.63
2023-03-12T04:31:10.292Z,100730.44
2023-03-12T04:33:39.780Z,100739.88
2023-03-12T04:36:08.563Z,100729.63
2023-03-12T04:38:37.178Z,100719.25
2023-03-12T04:41:09.493Z,100707.84
2023-03-12T04:43:38.521Z,100705.03
2023-03-12T04:46:07.883Z,100704.34
2023-03-12T04:48:37.046Z,100698.50
2023-03-12T04:51:05.773Z,100706.13
2023-03-12T04:53:34.244Z,100712.69
2023-03-12T04:56:02.863Z,100710.53
2023-03-12T04:58:31.628Z,100709.50
2023-03-12T05:01:00.430Z,100711.00
2023-03-12T05:03:29.238Z,100694.13
2023-03-12T05:05:58.196Z,100685.75
2023-03-12T05:08:26.617Z,100687.59
2023-03-12T05:10:55.106Z,100688.19
2023-03-12T05:13:23.667Z,100683.66
2023-03-12T05:15:52.138Z,100667.56
2023-03-12T05:18:21.542Z,100651.22
2023-03-12T05:21:01.698Z,100646.06
2023-03-12T05:23:30.773Z,100647.13
2023-03-12T05:25:59.663Z,100652.16
2023-03-12T05:28:28.802Z,100649.06
2023-03-12T05:30:58.477Z,100655.69
2023-03-12T05:33:28.355Z,100655.09
2023-03-12T05:35:57.072Z,100653.09
2023-03-12T05:38:25.580Z,100651.84
2023-03-12T05:40:56.513Z,100643.69
2023-03-12T05:43:25.940Z,100643.53
2023-03-12T05:45:59.065Z,100640.81
2023-03-12T05:48:28.028Z,100638.66
2023-03-12T05:50:57.025Z,100626.94
2023-03-12T05:53:25.508Z,100634.34
2023-03-12T05:55:54.057Z,100631.47
2023-03-12T05:58:22.573Z,100631.47
2023-03-12T06:00:51.170Z,100631.84
2023-03-12T06:03:19.692Z,100628.22
2023-03-12T06:05:48.252Z,100632.38
2023-03-12T06:08:16.736Z,100638.06
2023-03-12T06:10:45.145Z,100639.03
2023-03-12T06:13:13.732Z,100645.41
2023-03-12T06:15:42.179Z,100633.88
2023-03-12T06:18:10.632Z,100645.28
2023-03-12T06:20:39.135Z,100651.50
2023-03-12T06:23:07.568Z,100658.84
2023-03-12T06:25:36.121Z,100646.53
2023-03-12T06:28:04.844Z,100657.06
2023-03-12T06:30:33.301Z,100657.53
2023-03-12T06:33:04.038Z,100662.34
2023-03-12T06:35:32.475Z,100646.28
2023-03-12T06:38:01.021Z,100645.38
2023-03-12T06:40:29.602Z,100637.25
2023-03-12T06:42:58.055Z,100643.78
2023-03-12T06:45:26.486Z,100635.09
2023-03-12T06:47:54.847Z,100635.25
2023-03-12T06:50:23.241Z,100630.28
2023-03-12T06:52:52.111Z,100618.25
2023-03-12T06:55:20.566Z,100620.72
2023-03-12T06:57:48.983Z,100605.00
2023-03-12T07:00:17.722Z,100606.91
2023-03-12T07:02:46.104Z,100606.44
2023-03-12T07:05:15.795Z,100609.13
2023-03-12T07:07:44.217Z,100605.47
2023-03-12T07:10:12.631Z,100598.22
2023-03-12T07:12:41.086Z,100597.63
2023-03-12T07:15:10.107Z,100590.75
2023-03-12T07:17:38.761Z,100593.28
2023-03-12T07:20:08.295Z,100603.41
2023-03-12T07:22:36.696Z,100604.44
2023-03-12T07:25:05.507Z,100617.41
2023-03-12T07:27:34.020Z,100602.22
2023-03-12T07:30:02.554Z,100612.97
2023-03-12T07:32:33.369Z,100614.56
2023-03-12T07:35:01.884Z,100618.66
2023-03-12T07:37:30.704Z,100603.56
2023-03-12T07:39:59.193Z,100620.66
2023-03-12T07:42:27.797Z,100614.81
2023-03-12T07:44:56.250Z,100618.00
2023-03-12T07:47:24.892Z,100615.25
2023-03-12T07:49:54.035Z,100612.69
2023-03-12T07:52:23.523Z,100613.53
2023-03-12T07:54:52.862Z,100611.00
2023-03-12T07:57:21.452Z,100610.41
2023-03-12T07:59:50.188Z,100613.78
2023-03-12T08:02:19.089Z,100606.03
2023-03-12T08:04:48.031Z,100614.81
2023-03-12T08:07:16.821Z,100610.53
2023-03-12T08:09:45.779Z,100608.66
2023-03-12T08:12:14.248Z,100605.03
2023-03-12T08:14:42.841Z,100602.41
2023-03-12T08:17:11.584Z,100607.88
2023-03-12T08:19:40.077Z,100602.88
2023-03-12T08:22:08.818Z,100612.91
2023-03-12T08:24:37.302Z,100608.16
2023-03-12T08:27:05.810Z,100609.63
2023-03-12T08:29:34.500Z,100605.72
2023-03-12T08:32:05.282Z,100612.28
2023-03-12T08:34:35.205Z,100616.28
2023-03-12T08:37:03.883Z,100615.47
2023-03-12T08:39:32.662Z,100626.34
2023-03-12T08:42:01.217Z,100623.38
2023-03-12T08:44:29.942Z,100625.25
2023-03-12T08:46:58.368Z,100624.72
2023-03-12T08:49:26.960Z,100634.78
2023-03-12T08:51:55.374Z,100634.97
2023-03-12T08:54:25.852Z,100636.50
2023-03-12T08:56:54.332Z,100642.31
2023-03-12T08:59:23.443Z,100642.03
2023-03-12T09:01:52.041Z,100645.69
2023-03-12T09:04:20.477Z,100641.53
2023-03-12T09:06:48.910Z,100642.00
2023-03-12T09:09:17.405Z,100631.97
2023-03-12T09:11:45.805Z,100643.34
2023-03-12T09:17:03.042Z,100644.84
2023-03-12T09:19:31.578Z,100642.66
2023-03-12T09:22:00.023Z,100645.00
2023-03-12T09:24:28.430Z,100634.63
2023-03-12T09:26:56.923Z,100634.75
2023-03-12T09:29:25.472Z,100629.13
2023-03-12T09:31:54.336Z,100632.94
2023-03-12T09:34:22.996Z,100643.00
2023-03-12T09:36:52.116Z,100643.97
2023-03-12T09:39:22.639Z,100646.59
2023-03-12T09:41:51.171Z,100634.97
2023-03-12T09:44:38.109Z,100644.53
2023-03-12T09:47:20.872Z,100637.66
2023-03-12T09:49:54.973Z,100642.25
2023-03-12T09:52:34.335Z,100657.09
2023-03-12T09:55:16.670Z,100666.41
2023-03-12T09:57:46.259Z,100658.97
2023-03-12T10:00:18.154Z,100680.13
2023-03-12T10:03:07.444Z,100679.94
2023-03-12T10:05:55.318Z,100674.97
2023-03-12T10:08:38.399Z,100676.66
2023-03-12T10:11:18.536Z,100682.44
2023-03-12T10:13:59.348Z,100681.72
2023-03-12T10:16:45.388Z,100670.53
2023-03-12T10:19:23.933Z,100679.47
2023-03-12T10:22:14.475Z,100675.59
2023-03-12T10:25:01.473Z,100671.44
2023-03-12T10:27:33.327Z,100678.50
2023-03-12T10:30:03.110Z,100679.53
2023-03-12T10:32:44.109Z,100670.38
2023-03-12T10:35:22.163Z,100674.72
2023-03-12T10:37:56.923Z,100670.63
2023-03-12T10:40:30.904Z,100674.50
2023-03-12T10:43:00.218Z,100681.59
2023-03-12T10:45:39.586Z,100664.88
2023-03-12T10:48:11.833Z,100673.78
2023-03-12T10:50:40.920Z,100670.34
2023-03-12T10:53:14.597Z,100661.91
2023-03-12T10:55:43.093Z,100667.22
2023-03-12T10:58:25.304Z,100666.94
2023-03-12T11:00:59.543Z,100665.91
2023-03-12T11:03:29.568Z,100676.78
2023-03-12T11:06:03.846Z,100669.59
2023-03-12T11:08:36.252Z,100672.16
2023-03-12T11:11:05.655Z,100680.47
2023-03-12T11:13:39.675Z,100681.69
2023-03-12T11:16:17.044Z,100679.56
2023-03-12T11:19:03.853Z,100672.53
2023-03-12T11:21:37.210Z,100688.59
2023-03-12T11:24:13.811Z,100685.78
2023-03-12T11:26:59.236Z,100691.41
2023-03-12T11:29:32.995Z,100689.09
2023-03-12T11:32:29.990Z,100688.84
2023-03-12T11:34:59.488Z,100686.28
2023-03-12T11:37:40.388Z,100677.69
2023-03-12T11:40:17.002Z,100689.25
2023-03-12T11:43:43.161Z,100690.63
2023-03-12T11:46:17.914Z,100693.41
2023-03-12T11:49:35.679Z,100685.25
2023-03-12T11:52:31.528Z,100695.00
2023-03-12T11:55:17.568Z,100679.91
2023-03-12T11:58:12.580Z,100678.78
2023-03-12T12:00:49.125Z,100688.25
2023-03-12T12:03:36.026Z,100684.56
2023-03-12T12:06:25.287Z,100678.72
2023-03-12T12:09:18.296Z,100672.13
2023-03-12T12:12:11.528Z,100668.78
2023-03-12T12:15:07.853Z,100655.53
2023-03-12T12:18:31.524Z,100662.22
2023-03-12T12:21:12.549Z,100648.91
2023-03-12T12:23:40.900Z,100653.66
2023-03-12T12:26:28.834Z,100649.59
2023-03-12T12:29:20.934Z,100644.06
2023-03-12T12:31:56.481Z,100633.41
2023-03-12T12:35:06.974Z,100637.56
2023-03-12T12:37:58.484Z,100629.72
2023-03-12T12:40:37.528Z,100625.66
2023-03-12T12:43:25.249Z,100620.19
2023-03-12T12:45:57.950Z,100621.81
2023-03-12T12:48:34.997Z,100629.63
2023-03-12T12:51:08.291Z,100624.34
2023-03-12T12:53:47.209Z,100614.00
2023-03-12T12:56:54.765Z,100617.41
2023-03-12T12:59:43.794Z,100609.97
2023-03-12T13:02:19.500Z,100616.06
2023-03-12T13:04:49.017Z,100613.75
2023-03-12T13:07:20.380Z,100599.50
2023-03-12T13:09:56.738Z,100605.25
2023-03-12T13:12:32.789Z,100593.81
2023-03-12T13:15:02.597Z,100602.63
2023-03-12T13:17:59.756Z,100596.72
2023-03-12T13:21:00.041Z,100596.38
2023-03-12T13:23:49.729Z,100600.06
2023-03-12T13:26:38.486Z,100591.00
2023-03-12T13:29:29.001Z,100604.69
2023-03-12T13:31:57.625Z,100596.44
2023-03-12T13:34:28.065Z,100601.03
2023-03-12T13:37:02.516Z,100596.59
2023-03-12T13:39:32.579Z,100603.91
2023-03-12T13:42:22.305Z,100593.06
2023-03-12T13:44:52.449Z,100586.00
2023-03-12T13:47:30.295Z,100594.75
2023-03-12T13:50:04.817Z,100586.19
2023-03-12T13:52:41.493Z,100572.84
2023-03-12T13:55:12.974Z,100588.53
2023-03-12T13:57:45.914Z,100587.72
2023-03-12T14:00:25.090Z,100591.72
2023-03-12T14:03:06.372Z,100580.31
2023-03-12T14:05:47.873Z,100585.16
2023-03-12T14:08:42.272Z,100597.25
2023-03-12T14:11:35.288Z,100595.16
2023-03-12T14:14:25.000Z,100605.19
2023-03-12T14:16:59.671Z,100615.97
2023-03-12T14:19:33.873Z,100610.97
2023-03-12T14:22:07.771Z,100608.94
2023-03-12T14:25:25.639Z,100597.25
2023-03-12T14:27:54.250Z,100608.47
2023-03-12T14:30:28.580Z,100612.97
2023-03-12T14:33:01.261Z,100621.59
2023-03-12T14:35:38.821Z,100622.16
2023-03-12T14:38:25.362Z,100619.00
2023-03-12T14:41:19.080Z,100626.66
2023-03-12T14:43:52.124Z,100627.06
2023-03-12T14:46:23.152Z,100631.16
2023-03-12T14:48:54.837Z,100634.63
2023-03-12T14:51:29.770Z,100616.09
2023-03-12T14:54:02.683Z,100632.06
2023-03-12T14:56:35.406Z,100633.66
2023-03-12T14:59:35.003Z,100629.75
2023-03-12T15:02:14.926Z,100622.16
2023-03-12T15:04:44.266Z,100635.84
2023-03-12T15:07:18.462Z,100636.31
2023-03-12T15:09:50.657Z,100641.97
2023-03-12T15:12:33.826Z,100627.16
2023-03-12T15:15:08.396Z,100649.59
2023-03-12T15:17:37.469Z,100638.56
2023-03-12T15:20:09.280Z,100643.19
2023-03-12T15:22:38.501Z,100652.53
2023-03-12T15:25:24.624Z,100654.69
2023-03-12T15:28:06.985Z,100636.91
2023-03-12T15:30:36.266Z,100640.19
2023-03-12T15:33:09.436Z,100646.16
2023-03-12T15:36:01.767Z,100643.66
2023-03-12T15:38:33.531Z,100635.84
2023-03-12T15:41:20.290Z,100639.94
2023-03-12T15:43:54.231Z,100639.38
2023-03-12T15:46:24.241Z,100643.50
2023-03-12T15:49:00.771Z,100631.69
2023-03-12T15:51:35.689Z,100644.97
2023-03-12T15:54:21.669Z,100632.75
2023-03-12T15:56:50.203Z,100624.06
2023-03-12T15:59:27.637Z,100622.50
2023-03-12T16:01:56.761Z,100618.75
2023-03-12T16:04:25.853Z,100633.47
2023-03-12T16:06:54.289Z,100625.47
2023-03-12T16:09:26.262Z,100621.47
2023-03-12T16:11:55.512Z,100625.69
2023-03-12T16:14:35.086Z,100626.47
2023-03-12T16:17:03.617Z,100622.97
2023-03-12T16:19:34.235Z,100627.25
2023-03-12T16:22:02.750Z,100615.75
2023-03-12T16:24:31.121Z,100614.25
2023-03-12T16:27:00.278Z,100622.97
2023-03-12T16:29:34.479Z,100617.22
2023-03-12T16:32:11.367Z,100624.31
2023-03-12T16:34:40.244Z,100623.03
2023-03-12T16:37:12.475Z,100630.13
2023-03-12T16:39:40.925Z,100633.16
2023-03-12T16:42:17.466Z,100619.66
2023-03-12T16:44:46.752Z,100623.38
2023-03-12T16:47:15.313Z,100627.34
2023-03-12T16:49:43.850Z,100625.84
2023-03-12T16:52:19.269Z,100616.53
2023-03-12T16:54:51.732Z,100618.56
2023-03-12T16:57:27.939Z,100626.31
2023-03-12T16:59:56.723Z,100627.16
2023-03-12T17:02:25.322Z,100624.34
2023-03-12T17:04:54.175Z,100627.06
2023-03-12T17:07:22.558Z,100622.44
2023-03-12T17:09:50.984Z,100620.41
2023-03-12T17:12:28.391Z,100634.59
2023-03-12T17:14:58.702Z,100635.00
2023-03-12T17:17:27.134Z,100647.69
2023-03-12T17:19:55.737Z,100644.63
2023-03-12T17:22:24.980Z,100647.91
2023-03-12T17:24:54.289Z,100646.09
2023-03-12T17:27:22.950Z,100639.91
2023-03-12T17:29:51.381Z,100646.91
2023-03-12T17:32:19.828Z,100656.44
2023-03-12T17:34:53.903Z,100666.22
2023-03-12T17:37:22.440Z,100659.63
2023-03-12T17:39:50.914Z,100659.66
2023-03-12T17:42:19.584Z,100661.41
2023-03-12T17:44:48.150Z,100664.94
2023-03-12T17:47:16.621Z,100659.38
2023-03-12T17:49:45.414Z,100670.53
2023-03-12T17:52:13.850Z,100665.94
2023-03-12T17:54:42.322Z,100657.25
2023-03-12T17:57:10.758Z,100650.63
2023-03-12T17:59:39.220Z,100645.22
2023-03-12T18:02:09.758Z,100644.28
2023-03-12T18:04:38.186Z,100652.31
2023-03-12T18:07:07.075Z,100663.13
2023-03-12T18:09:35.578Z,100651.28
2023-03-12T18:12:05.566Z,100659.09
2023-03-12T18:14:34.204Z,100661.63
2023-03-12T18:17:02.622Z,100658.31
2023-03-12T18:19:31.123Z,100665.63
2023-03-12T18:22:00.004Z,100663.47
2023-03-12T18:24:28.447Z,100653.94
2023-03-12T18:26:56.975Z,100654.13
2023-03-12T18:29:26.039Z,100641.50
2023-03-12T18:31:54.493Z,100642.56
2023-03-12T18:34:24.013Z,100648.84
2023-03-12T18:36:52.689Z,100648.34
2023-03-12T18:39:21.138Z,100643.81
2023-03-12T18:41:49.599Z,100648.66
2023-03-12T18:44:17.983Z,100644.00
2023-03-12T18:46:46.501Z,100644.75
2023-03-12T18:49:15.007Z,100635.53
2023-03-12T18:51:43.427Z,100642.38
2023-03-12T18:54:12.784Z,100639.47
2023-03-12T18:56:41.439Z,100629.94
2023-03-12T18:59:10.061Z,100632.25
2023-03-12T19:01:38.431Z,100629.59
2023-03-12T19:04:07.156Z,100633.34
2023-03-12T19:06:49.738Z,100623.97
2023-03-12T19:09:19.813Z,100627.97
2023-03-12T19:11:48.902Z,100623.97
2023-03-12T19:14:17.377Z,100618.38
2023-03-12T19:16:45.769Z,100616.31
2023-03-12T19:19:14.206Z,100619.13
2023-03-12T19:21:42.696Z,100605.16
2023-03-12T19:24:11.161Z,100599.84
2023-03-12T19:26:40.009Z,100605.72
2023-03-12T19:29:08.615Z,100607.78
2023-03-12T19:31:37.031Z,100599.75
2023-03-12T19:34:05.605Z,100598.81
2023-03-12T19:36:34.207Z,100601.28
2023-03-12T19:39:06.735Z,100598.13
2023-03-12T19:41:43.109Z,100603.66
2023-03-12T19:44:11.533Z,100602.06
2023-03-12T19:46:42.963Z,100591.44
2023-03-12T19:49:11.426Z,100595.03
2023-03-12T19:51:41.192Z,100586.50
2023-03-12T19:54:09.601Z,100577.97
2023-03-12T19:56:37.974Z,100574.88
2023-03-12T19:59:06.363Z,100571.56
2023-03-12T20:01:34.887Z,100561.97
2023-03-12T20:04:07.887Z,100560.09
2023-03-12T20:06:36.350Z,100554.25
2023-03-12T20:09:05.447Z,100542.13
2023-03-12T20:11:37.862Z,100533.81
2023-03-12T20:14:06.300Z,100532.13
2023-03-12T20:16:34.853Z,100533.88
2023-03-12T20:19:03.699Z,100526.78
2023-03-12T20:21:32.181Z,100527.22
2023-03-12T20:24:02.160Z,100519.75
2023-03-12T20:26:30.817Z,100519.94
2023-03-12T20:29:02.519Z,100515.56
2023-03-12T20:31:31.209Z,100502.00
2023-03-12T20:33:59.999Z,100495.41
2023-03-12T20:36:28.500Z,100500.34
2023-03-12T20:38:56.940Z,100491.59
2023-03-12T20:41:25.349Z,100491.38
2023-03-12T20:43:57.687Z,100489.31
2023-03-12T20:46:26.469Z,100492.59
2023-03-12T20:48:56.689Z,100486.72
2023-03-12T20:51:25.456Z,100489.47
2023-03-12T20:53:53.883Z,100487.41
2023-03-12T20:56:22.295Z,100486.38
2023-03-12T20:58:50.700Z,100474.09
2023-03-12T21:01:19.531Z,100479.72
2023-03-12T21:03:48.071Z,100479.91
2023-03-12T21:06:16.611Z,100473.00
2023-03-12T21:08:45.071Z,100470.13
2023-03-12T21:11:13.547Z,100461.88
2023-03-12T21:13:41.967Z,100460.97
2023-03-12T21:16:11.717Z,100454.50
2023-03-12T21:18:40.105Z,100455.19
2023-03-12T21:21:08.734Z,100455.78
2023-03-12T21:23:38.779Z,100453.88
2023-03-12T21:26:09.350Z,100442.47
2023-03-12T21:28:38.044Z,100440.81
2023-03-12T21:31:09.234Z,100449.78
2023-03-12T21:33:37.660Z,100441.69
2023-03-12T21:36:11.409Z,100432.69
2023-03-12T21:38:40.943Z,100436.03
2023-03-12T21:41:14.922Z,100423.91
2023-03-12T21:43:44.457Z,100423.97
2023-03-12T21:46:19.178Z,100423.50
2023-03-12T21:48:48.317Z,100398.75
2023-03-12T21:51:17.886Z,100408.56
2023-03-12T21:53:46.277Z,100396.91
2023-03-12T21:56:14.753Z,100399.91
2023-03-12T21:58:44.231Z,100397.84
2023-03-12T22:01:15.810Z,100383.31
2023-03-12T22:03:45.516Z,100382.47
2023-03-12T22:06:15.695Z,100389.66
2023-03-12T22:08:45.317Z,100379.75
2023-03-12T22:11:14.606Z,100374.16
2023-03-12T22:13:43.186Z,100360.84
2023-03-12T22:16:13.485Z,100351.88
2023-03-12T22:18:44.386Z,100340.88
2023-03-12T22:21:18.598Z,100335.41
2023-03-12T22:23:48.371Z,100323.84
2023-03-12T22:26:17.343Z,100322.81
2023-03-12T22:28:51.000Z,100328.03
2023-03-12T22:31:21.128Z,100319.50
2023-03-12T22:33:49.749Z,100309.53
2023-03-12T22:36:19.928Z,100310.78
2023-03-12T22:38:49.266Z,100302.66
2023-03-12T22:41:22.057Z,100286.88
2023-03-12T22:43:52.312Z,100296.25
2023-03-12T22:46:23.163Z,100293.09
2023-03-12T22:48:54.531Z,100291.25
2023-03-12T22:51:23.909Z,100285.84
2023-03-12T22:53:52.485Z,100286.88
2023-03-12T22:56:21.610Z,100283.97
2023-03-12T22:58:50.478Z,100275.00
2023-03-12T23:01:21.674Z,100268.56
2023-03-12T23:03:50.385Z,100277.13
2023-03-12T23:06:21.289Z,100272.53
2023-03-12T23:08:51.183Z,100266.91
2023-03-12T23:11:20.716Z,100264.63
2023-03-12T23:13:49.803Z,100256.97
2023-03-12T23:16:21.472Z,100252.16
2023-03-12T23:18:50.782Z,100246.13
2023-03-12T23:21:21.761Z,100236.19
2023-03-12T23:23:50.559Z,100232.19
2023-03-12T23:26:24.553Z,100233.03
2023-03-12T23:28:58.808Z,100218.28
2023-03-12T23:31:28.450Z,100211.63
2023-03-12T23:33:58.399Z,100204.59
2023-03-12T23:36:27.682Z,100200.59
2023-03-12T23:38:56.678Z,100196.03
2023-03-12T23:41:29.447Z,100197.06
2023-03-12T23:43:59.047Z,100194.81
2023-03-12T23:46:27.880Z,100171.31
2023-03-12T23:48:57.125Z,100167.38
2023-03-12T23:51:31.527Z,100152.84
2023-03-12T23:54:02.003Z,100148.91
2023-03-12T23:56:39.293Z,100139.94
2023-03-12T23:59:09.446Z,100126.66
